Time;durP1;ratioP1;P1;durP2;ratioP2;P2;SDS_P1;SDS_P2;PMS_P1;PMS_P2;Temp;Humidity;BMP_temperature;BMP_pressure;BME280_temperature;BME280_humidity;BME280_pressure;Samples;Min_cycle;Max_cycle;Signal;HPM_P1;HPM_P2
2021/08/10 00:01:49;;;;;;;;;0.00;0.00;;;;;20.69;56.29;101361.41;6089471;23;45350;-77
2021/08/10 00:04:15;;;;;;;;;0.00;0.00;;;;;20.67;56.34;101357.09;6086543;23;46980;-76
2021/08/10 00:06:40;;;;;;;;;0.00;0.00;;;;;20.64;56.56;101356.25;6088643;23;45287;-76
2021/08/10 00:09:06;;;;;;;;;0.00;0.00;;;;;20.67;56.81;101371.16;6089041;23;45826;-76
2021/08/10 00:11:31;;;;;;;;;0.00;0.00;;;;;20.57;56.48;101345.84;6089088;23;45215;-76
2021/08/10 00:13:56;;;;;;;;;1.00;0.00;;;;;20.55;56.70;101342.38;6087211;23;46066;-76
2021/08/10 00:16:22;;;;;;;;;0.00;0.00;;;;;20.56;56.92;101367.91;6088630;23;45290;-77
2021/08/10 00:18:47;;;;;;;;;0.00;0.00;;;;;20.51;56.77;101368.88;6089016;23;45306;-77
2021/08/10 00:21:12;;;;;;;;;0.00;0.00;;;;;20.41;56.77;101353.25;6089225;23;45378;-76
2021/08/10 00:23:38;;;;;;;;;0.00;0.00;;;;;20.44;57.12;101348.78;6089201;23;45251;-77
2021/08/10 00:26:04;;;;;;;;;0.00;0.00;;;;;20.44;56.91;101362.00;6086875;23;45367;-77
2021/08/10 00:28:29;;;;;;;;;0.25;0.00;;;;;20.45;56.88;101353.16;6088815;23;45361;-77
2021/08/10 00:30:55;;;;;;;;;0.00;0.00;;;;;20.40;57.13;101346.25;6089172;23;45234;-77
2021/08/10 00:33:20;;;;;;;;;0.00;0.00;;;;;20.43;57.15;101349.66;6086532;23;46136;-77
2021/08/10 00:35:46;;;;;;;;;0.00;0.00;;;;;20.37;57.30;101350.69;6088651;23;45315;-76
2021/08/10 00:38:11;;;;;;;;;0.00;0.00;;;;;20.34;57.11;101342.81;6088742;23;49042;-76
2021/08/10 00:40:39;;;;;;;;;0.00;0.00;;;;;20.36;57.38;101345.44;6089410;23;45361;-76
2021/08/10 00:43:29;;;;;;;;;0.00;0.00;;;;;20.35;57.31;101354.28;6086386;23;48427;-77
2021/08/10 00:45:54;;;;;;;;;0.00;0.00;;;;;20.31;57.46;101350.84;6088454;23;45479;-77
2021/08/10 00:48:20;;;;;;;;;0.00;0.00;;;;;20.24;57.37;101325.44;6088815;23;45298;-76
2021/08/10 00:50:46;;;;;;;;;0.00;0.00;;;;;20.31;57.68;101356.13;6089392;23;45392;-76
2021/08/10 00:53:12;;;;;;;;;0.00;0.00;;;;;20.33;57.63;101364.88;6088735;23;45340;-77
2021/08/10 00:55:37;;;;;;;;;0.00;0.00;;;;;20.34;57.21;101353.41;6088571;23;45473;-77
2021/08/10 00:58:03;;;;;;;;;0.00;0.00;;;;;20.22;57.13;101337.84;6088400;23;45281;-76
2021/08/10 01:00:28;;;;;;;;;0.00;0.00;;;;;20.36;57.63;101371.88;6088685;23;45301;-77
2021/08/10 01:02:54;;;;;;;;;0.00;0.00;;;;;20.33;57.86;101361.34;6088147;23;45316;-76
2021/08/10 01:05:20;;;;;;;;;0.00;0.00;;;;;20.33;57.71;101361.34;6088328;23;45325;-77
2021/08/10 01:07:57;;;;;;;;;0.00;0.00;;;;;20.21;58.22;101355.44;6088717;23;45415;-77
2021/08/10 01:11:07;;;;;;;;;0.00;0.00;;;;;20.26;58.22;101387.06;6089387;23;45435;-76
2021/08/10 01:13:38;;;;;;;;;0.00;0.00;;;;;20.19;58.67;101389.00;6087809;23;45270;-76
2021/08/10 01:16:20;;;;;;;;;0.00;0.00;;;;;20.16;58.35;101394.34;6087522;23;45376;-76
2021/08/10 01:18:54;;;;;;;;;0.00;0.00;;;;;20.04;59.32;101392.81;6086690;23;45548;-77
2021/08/10 01:21:26;;;;;;;;;0.00;0.00;;;;;20.02;59.47;101399.03;6089665;23;45284;-76
2021/08/10 01:24:01;;;;;;;;;0.00;0.00;;;;;19.81;60.41;101380.06;6090638;23;45344;-77
2021/08/10 01:26:50;;;;;;;;;0.00;0.00;;;;;19.69;60.91;101363.53;6090077;23;45292;-77
2021/08/10 01:29:28;;;;;;;;;0.00;0.00;;;;;19.77;61.08;101389.81;6088852;23;45359;-76
2021/08/10 01:31:57;;;;;;;;;0.00;0.00;;;;;19.69;61.89;101379.38;6088960;23;45347;-77
2021/08/10 01:34:42;;;;;;;;;0.00;0.00;;;;;19.66;62.16;101378.59;6090302;23;46096;-76
2021/08/10 01:37:15;;;;;;;;;0.00;0.00;;;;;19.52;62.94;101370.91;6090223;23;45287;-77
2021/08/10 01:39:43;;;;;;;;;0.00;0.00;;;;;19.37;62.71;101363.25;6090601;23;45314;-77
2021/08/10 01:42:11;;;;;;;;;0.00;0.00;;;;;19.39;63.16;101362.34;6090162;23;45370;-76
2021/08/10 01:44:36;;;;;;;;;0.00;0.00;;;;;19.36;63.50;101365.94;6090518;23;45970;-76
2021/08/10 01:47:03;;;;;;;;;0.00;0.00;;;;;19.36;63.74;101360.66;6090071;23;45194;-77
2021/08/10 01:49:30;;;;;;;;;0.00;0.00;;;;;19.36;63.74;101361.50;6090490;23;45601;-77
2021/08/10 01:51:57;;;;;;;;;0.00;0.00;;;;;19.15;64.33;101335.50;6090691;23;45382;-76
2021/08/10 01:54:25;;;;;;;;;0.00;0.00;;;;;19.26;64.77;101367.84;6090265;23;45282;-77
2021/08/10 01:56:50;;;;;;;;;0.00;0.00;;;;;19.28;64.97;101368.69;6090105;23;45279;-76
2021/08/10 01:59:17;;;;;;;;;0.00;0.00;;;;;19.20;65.23;101363.56;6088332;23;45204;-76
2021/08/10 02:01:43;;;;;;;;;0.00;0.00;;;;;19.08;65.50;101359.34;6090799;23;45243;-76
2021/08/10 02:04:09;;;;;;;;;0.00;0.00;;;;;19.15;65.61;101381.25;6087456;23;46319;-76
2021/08/10 02:06:37;;;;;;;;;0.00;0.00;;;;;19.16;65.72;101393.53;6090381;23;45270;-78
2021/08/10 02:09:03;;;;;;;;;0.00;0.00;;;;;19.12;66.31;101387.44;6088453;23;45353;-76
2021/08/10 02:11:30;;;;;;;;;0.00;0.00;;;;;19.08;66.02;101395.44;6090268;23;45315;-76
2021/08/10 02:13:57;;;;;;;;;0.00;0.00;;;;;19.02;66.79;101388.44;6088126;23;47210;-77
2021/08/10 02:16:25;;;;;;;;;0.00;0.00;;;;;19.07;67.11;101406.84;6090109;23;45310;-77
2021/08/10 02:18:51;;;;;;;;;0.00;0.00;;;;;18.96;66.79;101396.47;6089902;23;45396;-76
2021/08/10 02:21:41;;;;;;;;;0.00;0.00;;;;;19.00;67.77;101395.53;6090584;23;45296;-77
2021/08/10 02:24:10;;;;;;;;;0.00;0.00;;;;;18.93;68.14;101384.19;6089432;23;45277;-76
2021/08/10 02:26:44;;;;;;;;;0.00;0.00;;;;;18.96;67.55;101383.28;6089925;23;45291;-77
2021/08/10 02:29:11;;;;;;;;;0.00;0.00;;;;;18.90;68.26;101355.25;6090145;23;45272;-76
2021/08/10 02:31:38;;;;;;;;;0.00;0.00;;;;;18.91;67.79;101359.63;6090263;23;45334;-76
2021/08/10 02:34:03;;;;;;;;;0.00;0.00;;;;;18.86;68.37;101354.41;6089899;23;45395;-77
2021/08/10 02:36:30;;;;;;;;;0.00;0.00;;;;;18.79;68.55;101352.78;6089979;23;45432;-77
2021/08/10 02:39:00;;;;;;;;;0.00;0.00;;;;;18.73;68.73;101361.66;6089034;23;45231;-76
2021/08/10 02:41:25;;;;;;;;;0.00;0.00;;;;;18.70;69.37;101364.34;6090431;23;45432;-76
2021/08/10 02:43:51;;;;;;;;;0.00;0.00;;;;;18.81;69.77;101379.13;6090013;23;45318;-77
2021/08/10 02:46:17;;;;;;;;;0.00;0.00;;;;;18.70;69.31;101363.47;6089351;23;45395;-77
2021/08/10 02:48:43;;;;;;;;;0.00;0.00;;;;;18.65;69.50;101360.88;6089872;23;45329;-74
2021/08/10 02:51:08;;;;;;;;;0.00;0.00;;;;;18.66;69.64;101365.28;6090120;23;45333;-77
2021/08/10 02:53:33;;;;;;;;;0.00;0.00;;;;;18.74;69.27;101376.59;6087501;23;47474;-75
2021/08/10 02:56:15;;;;;;;;;0.00;0.00;;;;;18.80;68.82;101385.31;6089554;23;45337;-76
2021/08/10 02:58:50;;;;;;;;;0.00;0.00;;;;;18.73;68.90;101368.69;6088111;23;45374;-75
2021/08/10 03:01:20;;;;;;;;;0.00;0.00;;;;;18.75;68.34;101366.91;6088314;23;45294;-76
2021/08/10 03:03:47;;;;;;;;;0.00;0.00;;;;;18.62;69.36;101347.75;6089662;23;45214;-77
2021/08/10 03:06:13;;;;;;;;;0.00;0.00;;;;;18.73;68.72;101355.50;6089407;23;45297;-77
2021/08/10 03:08:53;;;;;;;;;1.00;0.00;;;;;18.81;69.22;101364.16;6089662;23;45230;-77
2021/08/10 03:11:21;;;;;;;;;0.00;0.00;;;;;18.81;69.13;101365.94;6089817;23;45313;-77
2021/08/10 03:13:48;;;;;;;;;0.00;0.00;;;;;18.82;69.03;101360.66;6089687;23;45302;-77
2021/08/10 03:16:15;;;;;;;;;0.00;0.00;;;;;18.86;68.91;101364.09;6088978;23;45376;-77
2021/08/10 03:18:46;;;;;;;;;0.00;0.00;;;;;18.92;68.60;101385.09;6089473;23;45384;-76
2021/08/10 03:21:12;;;;;;;;;0.00;0.00;;;;;18.93;69.08;101380.69;6089866;23;45392;-77
2021/08/10 03:23:40;;;;;;;;;0.00;0.00;;;;;18.93;68.20;101383.34;6089149;23;45296;-76
2021/08/10 03:26:08;;;;;;;;;0.00;0.00;;;;;18.80;68.28;101372.13;6089286;23;45351;-76
2021/08/10 03:28:41;;;;;;;;;0.00;0.00;;;;;18.84;69.06;101366.75;6089505;23;45331;-76
2021/08/10 03:31:07;;;;;;;;;0.00;0.00;;;;;18.69;68.42;101346.78;6089775;23;45337;-76
2021/08/10 03:33:33;;;;;;;;;0.00;0.00;;;;;18.72;68.49;101362.53;6089126;23;45254;-76
2021/08/10 03:35:59;;;;;;;;;0.00;0.00;;;;;18.65;68.38;101363.53;6088922;23;45405;-77
2021/08/10 03:38:25;;;;;;;;;0.00;0.00;;;;;18.73;68.47;101361.66;6089450;23;45361;-73
2021/08/10 03:40:51;;;;;;;;;0.00;0.00;;;;;18.74;68.72;101363.41;6089356;23;45587;-73
2021/08/10 03:43:17;;;;;;;;;0.00;0.00;;;;;18.63;67.98;101338.09;6088678;23;45373;-76
2021/08/10 03:45:43;;;;;;;;;0.00;0.00;;;;;18.76;68.70;101357.22;6089348;23;45542;-76
2021/08/10 03:48:10;;;;;;;;;0.00;0.00;;;;;18.70;68.93;101337.09;6088620;23;45742;-76
2021/08/10 03:50:37;;;;;;;;;0.00;0.00;;;;;18.86;68.29;101361.44;6087948;23;45362;-76
2021/08/10 03:53:03;;;;;;;;;0.00;0.00;;;;;18.87;68.53;101360.56;6088321;23;46170;-76
2021/08/10 03:55:29;;;;;;;;;0.00;0.00;;;;;18.88;68.13;101359.66;6088049;23;45368;-76
2021/08/10 03:57:57;;;;;;;;;0.00;0.00;;;;;18.90;68.61;101373.72;6089253;23;45352;-76
2021/08/10 04:00:24;;;;;;;;;0.00;0.00;;;;;18.81;68.77;101361.50;6089825;23;45271;-76
2021/08/10 04:02:51;;;;;;;;;1.00;0.00;;;;;18.86;68.78;101364.09;6089111;23;45282;-76
2021/08/10 04:05:17;;;;;;;;;0.00;0.00;;;;;18.88;68.89;101359.66;6088226;23;45376;-74
2021/08/10 04:07:42;;;;;;;;;0.00;0.00;;;;;18.97;68.71;101369.19;6088793;23;45385;-75
2021/08/10 04:10:09;;;;;;;;;0.00;0.00;;;;;18.91;68.92;101354.34;6088773;23;45284;-75
2021/08/10 04:12:35;;;;;;;;;0.00;0.00;;;;;18.86;69.04;101350.91;6086240;23;47191;-76
2021/08/10 04:15:01;;;;;;;;;1.25;0.00;;;;;18.98;68.66;101366.53;6088832;23;45294;-74
2021/08/10 04:17:29;;;;;;;;;0.00;0.00;;;;;18.79;68.50;101346.63;6088721;23;45384;-74
2021/08/10 04:19:57;;;;;;;;;0.00;0.00;;;;;18.80;68.30;101365.06;6089123;23;45340;-75
2021/08/10 04:22:22;;;;;;;;;0.00;0.00;;;;;18.85;68.33;101367.63;6088247;23;45448;-75
2021/08/10 04:24:48;;;;;;;;;0.00;0.00;;;;;18.90;68.47;101383.38;6088147;23;45318;-75
2021/08/10 04:27:15;;;;;;;;;0.00;0.00;;;;;18.88;68.70;101372.84;6088960;23;45271;-74
2021/08/10 04:29:40;;;;;;;;;0.00;0.00;;;;;18.86;68.60;101374.63;6089558;23;45286;-75
2021/08/10 04:32:07;;;;;;;;;0.00;0.00;;;;;18.94;68.54;101391.22;6088429;23;46088;-74
2021/08/10 04:34:33;;;;;;;;;0.00;0.00;;;;;18.86;68.55;101378.16;6088431;23;45639;-74
2021/08/10 04:36:59;;;;;;;;;0.00;0.00;;;;;18.90;68.77;101379.00;6086723;23;45362;-75
2021/08/10 04:39:26;;;;;;;;;2.00;0.00;;;;;18.98;68.40;101379.72;6087845;23;45357;-75
2021/08/10 04:41:58;;;;;;;;;0.00;0.00;;;;;18.93;68.13;101367.50;6088401;23;45329;-75
2021/08/10 04:44:24;;;;;;;;;0.00;0.00;;;;;18.99;68.23;101372.69;6088694;23;45277;-74
2021/08/10 04:46:49;;;;;;;;;0.00;0.00;;;;;18.99;68.92;101373.53;6088671;23;45369;-75
2021/08/10 04:49:15;;;;;;;;;0.00;0.00;;;;;19.09;69.32;101383.97;6088475;23;45305;-75
2021/08/10 04:51:41;;;;;;;;;0.00;0.00;;;;;19.01;69.06;101367.41;6088535;23;45412;-77
2021/08/10 04:54:06;;;;;;;;;0.00;0.00;;;;;19.12;69.35;101383.94;6088488;23;45392;-74
2021/08/10 04:56:31;;;;;;;;;0.00;0.00;;;;;19.02;69.47;101371.75;6088671;23;45615;-75
2021/08/10 04:58:57;;;;;;;;;0.00;0.00;;;;;19.11;69.42;101388.34;6088655;23;45234;-75
2021/08/10 05:01:22;;;;;;;;;0.00;0.00;;;;;19.13;69.46;101385.66;6086530;23;60449;-75
2021/08/10 05:03:47;;;;;;;;;0.00;0.00;;;;;19.16;69.48;101384.75;6083708;23;45326;-74
2021/08/10 05:06:13;;;;;;;;;0.00;0.00;;;;;19.17;69.89;101386.50;6087264;23;45404;-75
2021/08/10 05:08:38;;;;;;;;;0.00;0.00;;;;;19.15;69.40;101389.16;6088443;23;45482;-75
2021/08/10 05:11:08;;;;;;;;;0.00;0.00;;;;;19.18;69.49;101397.03;6087415;23;47122;-75
2021/08/10 05:13:34;;;;;;;;;0.00;0.00;;;;;19.21;69.27;101394.31;6087469;23;45326;-75
2021/08/10 05:15:59;;;;;;;;;0.00;0.00;;;;;19.14;68.10;101390.03;6086934;23;52335;-75
2021/08/10 05:18:24;;;;;;;;;0.00;0.00;;;;;19.18;68.19;101394.41;6087154;23;48355;-77
2021/08/10 05:20:49;;;;;;;;;0.00;0.00;;;;;19.15;67.99;101385.66;6086706;23;53226;-75
2021/08/10 05:23:15;;;;;;;;;0.00;0.00;;;;;19.24;68.13;101396.06;6087278;23;51030;-74
2021/08/10 05:25:40;;;;;;;;;1.00;0.00;;;;;19.14;67.63;101387.41;6086622;23;53791;-74
2021/08/10 05:28:05;;;;;;;;;0.00;0.00;;;;;19.23;68.24;101403.09;6087946;23;45395;-74
2021/08/10 05:30:31;;;;;;;;;0.00;0.00;;;;;19.20;68.49;101394.38;6087523;23;46017;-74
2021/08/10 05:32:56;;;;;;;;;0.00;0.00;;;;;19.27;67.45;101400.41;6086596;23;58426;-75
2021/08/10 05:35:22;;;;;;;;;0.00;0.00;;;;;19.19;67.08;101382.03;6088148;23;45429;-74
2021/08/10 05:37:47;;;;;;;;;0.00;0.00;;;;;19.17;66.99;101390.00;6088251;23;45451;-75
2021/08/10 05:40:13;;;;;;;;;0.00;0.00;;;;;19.13;67.05;101398.88;6087534;23;45597;-74
2021/08/10 05:42:38;;;;;;;;;0.00;0.00;;;;;19.16;67.01;101406.72;6087859;23;45363;-75
2021/08/10 05:45:04;;;;;;;;;0.00;0.00;;;;;19.13;67.50;101396.22;6087571;23;45320;-75
2021/08/10 05:47:30;;;;;;;;;0.00;0.00;;;;;19.21;67.50;101402.22;6087885;23;45370;-75
2021/08/10 05:49:55;;;;;;;;;0.00;0.00;;;;;19.16;67.38;101398.81;6086709;23;45310;-75
2021/08/10 05:52:20;;;;;;;;;0.00;0.00;;;;;19.23;67.58;101407.47;6087242;23;45384;-75
2021/08/10 05:54:46;;;;;;;;;0.00;0.00;;;;;19.18;67.30;101396.16;6087729;23;45266;-75
2021/08/10 05:57:11;;;;;;;;;0.00;0.00;;;;;19.30;67.50;101411.78;6085237;23;45621;-75
2021/08/10 05:59:36;;;;;;;;;0.00;0.00;;;;;19.34;67.41;101407.31;6084716;23;54348;-75
2021/08/10 06:02:03;;;;;;;;;0.00;0.00;;;;;19.37;67.51;101401.97;6086377;23;45209;-75
2021/08/10 06:04:29;;;;;;;;;0.00;0.00;;;;;19.42;67.52;101407.19;6087495;23;45341;-74
2021/08/10 06:06:54;;;;;;;;;0.00;0.00;;;;;19.42;67.27;101401.91;6089382;23;45289;-75
2021/08/10 06:09:19;;;;;;;;;0.00;0.00;;;;;19.45;67.12;101405.34;6088069;23;61032;-75
2021/08/10 06:11:45;;;;;;;;;0.00;0.00;;;;;19.41;67.45;101416.84;6088141;23;45277;-75
2021/08/10 06:14:10;;;;;;;;;0.00;0.00;;;;;19.38;67.50;101398.44;6088951;23;45273;-75
2021/08/10 06:16:37;;;;;;;;;0.00;0.00;;;;;19.47;67.22;101410.59;6086348;23;45385;-75
2021/08/10 06:19:02;;;;;;;;;0.00;0.00;;;;;19.50;66.62;101395.59;6088864;23;45320;-75
2021/08/10 06:21:29;;;;;;;;;0.50;0.00;;;;;19.59;67.38;101412.13;6086516;23;45229;-75
2021/08/10 06:23:54;;;;;;;;;0.00;0.00;;;;;19.58;66.76;101403.38;6088963;23;45292;-75
2021/08/10 06:26:20;;;;;;;;;0.00;0.00;;;;;19.58;66.27;101403.38;6087339;23;45489;-74
2021/08/10 06:28:46;;;;;;;;;0.00;0.00;;;;;19.60;66.12;101405.97;6088033;23;45994;-74
2021/08/10 06:31:12;;;;;;;;;0.00;0.00;;;;;19.65;66.10;101405.88;6087638;23;45210;-74
2021/08/10 06:33:37;;;;;;;;;0.00;0.00;;;;;19.60;65.90;101384.84;6086651;23;45354;-75
2021/08/10 06:36:04;;;;;;;;;0.00;0.00;;;;;19.75;65.82;101400.41;6087913;23;45336;-74
2021/08/10 06:38:29;;;;;;;;;0.00;0.00;;;;;19.82;66.39;101395.00;6087985;23;46140;-75
2021/08/10 06:40:54;;;;;;;;;0.00;0.00;;;;;19.92;66.44;101400.97;6087566;23;45246;-75
2021/08/10 06:43:20;;;;;;;;;0.00;0.00;;;;;19.98;66.11;101398.19;6088652;23;45263;-74
2021/08/10 06:45:45;;;;;;;;;0.00;0.00;;;;;19.98;65.33;101396.44;6087086;23;55521;-75
2021/08/10 06:48:10;;;;;;;;;0.00;0.00;;;;;19.84;65.32;101387.91;6087559;23;53965;-74
2021/08/10 06:50:36;;;;;;;;;0.00;0.00;;;;;19.98;65.87;101406.13;6088419;23;45628;-75
2021/08/10 06:53:01;;;;;;;;;0.00;0.00;;;;;19.97;65.62;101391.19;6087818;23;45302;-73
2021/08/10 06:55:27;;;;;;;;;0.00;0.00;;;;;20.05;65.73;101394.56;6087880;23;45222;-74
2021/08/10 06:57:53;;;;;;;;;0.00;0.00;;;;;20.19;64.99;101406.63;6088276;23;46459;-75
2021/08/10 07:00:18;;;;;;;;;0.00;0.00;;;;;20.27;65.74;101406.47;6088035;23;45449;-74
2021/08/10 07:02:43;;;;;;;;;0.00;0.00;;;;;20.18;64.28;101405.72;6088234;23;48235;-75
2021/08/10 07:05:09;;;;;;;;;0.00;0.00;;;;;20.11;64.07;101409.41;6087963;23;45346;-76
2021/08/10 07:07:35;;;;;;;;;0.00;0.00;;;;;20.09;64.06;101408.59;6088400;23;45804;-75
2021/08/10 07:10:00;;;;;;;;;0.00;0.00;;;;;20.11;64.17;101412.06;6088355;23;45349;-75
2021/08/10 07:12:25;;;;;;;;;0.00;0.00;;;;;20.16;64.03;101404.03;6087384;23;45281;-76
2021/08/10 07:14:51;;;;;;;;;0.00;0.00;;;;;20.21;63.47;101413.59;6087890;23;45206;-74
2021/08/10 07:17:16;;;;;;;;;0.00;0.00;;;;;20.09;63.04;101404.16;6087369;23;45325;-74
2021/08/10 07:19:41;;;;;;;;;0.00;0.00;;;;;20.05;63.24;101407.78;6087021;23;46702;-75
2021/08/10 07:22:07;;;;;;;;;0.00;0.00;;;;;20.01;63.07;101419.31;6088302;23;45302;-74
2021/08/10 07:24:32;;;;;;;;;0.00;0.00;;;;;19.96;63.19;101410.56;6088986;23;45301;-74
2021/08/10 07:26:58;;;;;;;;;0.00;0.00;;;;;19.97;63.54;101421.09;6088487;23;46344;-74
2021/08/10 07:29:23;;;;;;;;;0.00;0.00;;;;;19.89;63.21;101415.09;6088279;23;45329;-74
2021/08/10 07:31:48;;;;;;;;;0.75;0.00;;;;;19.82;63.06;101409.06;6087737;23;45279;-74
2021/08/10 07:34:14;;;;;;;;;0.00;0.00;;;;;19.83;63.23;101408.19;6085613;23;45330;-77
2021/08/10 07:36:39;;;;;;;;;0.00;0.00;;;;;19.91;63.05;101420.34;6077918;23;46030;-75
2021/08/10 07:39:05;;;;;;;;;0.00;0.00;;;;;19.93;62.90;101426.47;6080796;23;45278;-74
2021/08/10 07:41:31;;;;;;;;;0.00;0.00;;;;;19.99;62.83;101429.00;6086650;23;45395;-78
2021/08/10 07:43:57;;;;;;;;;0.00;0.00;;;;;20.11;63.00;101423.50;6084268;23;45397;-76
2021/08/10 07:46:22;;;;;;;;;0.00;0.00;;;;;20.17;62.87;101425.16;6086460;23;45323;-77
2021/08/10 07:48:48;;;;;;;;;0.00;0.00;;;;;20.32;62.69;101428.38;6085286;23;45377;-77
2021/08/10 07:51:13;;;;;;;;;0.00;0.00;;;;;20.42;62.86;101426.41;6087182;23;45337;-76
2021/08/10 07:53:39;;;;;;;;;0.00;0.00;;;;;20.44;62.96;101417.53;6087902;23;45290;-75
2021/08/10 07:56:05;;;;;;;;;0.00;0.00;;;;;20.53;62.32;101428.78;6084549;23;47032;-74
2021/08/10 07:58:31;;;;;;;;;1.00;0.00;;;;;20.45;61.66;101428.97;6086391;23;45331;-75
2021/08/10 08:00:56;;;;;;;;;0.00;0.00;;;;;20.44;61.95;101429.88;6087440;23;45497;-76
2021/08/10 08:03:22;;;;;;;;;0.25;0.25;;;;;20.41;61.94;101429.94;6087530;23;45151;-79
2021/08/10 08:05:48;;;;;;;;;0.00;0.00;;;;;20.45;62.10;101432.50;6086859;23;45303;-79
2021/08/10 08:08:13;;;;;;;;;0.00;0.00;;;;;20.44;61.77;101438.69;6086449;23;45337;-79
2021/08/10 08:10:39;;;;;;;;;0.00;0.00;;;;;20.46;62.14;101431.56;6087409;23;45801;-77
2021/08/10 08:13:04;;;;;;;;;0.00;0.00;;;;;20.60;62.21;101430.41;6086559;23;45260;-76
2021/08/10 08:15:29;;;;;;;;;0.00;0.00;;;;;20.69;62.15;101424.91;6086189;23;54516;-79
2021/08/10 08:17:55;;;;;;;;;0.00;0.00;;;;;20.78;61.50;101439.69;6086936;23;45741;-76
2021/08/10 08:20:20;;;;;;;;;0.00;0.00;;;;;20.74;60.81;101432.75;6086801;23;45349;-76
2021/08/10 08:22:45;;;;;;;;;0.00;0.00;;;;;20.54;61.56;101397.03;6084151;23;47075;-79
2021/08/10 08:25:12;;;;;;;;;0.00;0.00;;;;;20.78;61.37;101429.13;6085984;23;46538;-76
2021/08/10 08:27:37;;;;;;;;;0.50;0.00;;;;;20.87;61.55;101434.19;6085182;23;45392;-76
2021/08/10 08:30:05;;;;;;;;;0.00;0.00;;;;;20.96;61.11;101432.25;6085173;23;45392;-80
2021/08/10 08:32:30;;;;;;;;;0.00;0.00;;;;;20.75;61.03;101393.03;6086807;23;45317;-78
2021/08/10 08:34:56;;;;;;;;;1.00;0.00;;;;;21.10;61.34;101437.22;6086012;23;50553;-76
2021/08/10 08:37:21;;;;;;;;;0.25;0.00;;;;;21.18;60.96;101424.66;6085573;23;45418;-77
2021/08/10 08:39:46;;;;;;;;;0.00;0.00;;;;;21.29;60.61;101435.00;6084643;23;45307;-76
2021/08/10 08:42:13;;;;;;;;;0.00;0.00;;;;;21.31;60.28;101425.22;6084061;23;45464;-76
2021/08/10 08:44:39;;;;;;;;;0.00;0.00;;;;;21.23;60.35;101408.66;6083447;23;47798;-77
2021/08/10 08:47:07;;;;;;;;;0.00;0.00;;;;;21.34;60.24;101416.31;6081956;23;45397;-76
2021/08/10 08:49:35;;;;;;;;;0.00;0.00;;;;;21.44;59.79;101425.75;6086347;23;45498;-79
2021/08/10 08:52:06;;;;;;;;;0.00;0.00;;;;;21.51;60.13;101424.72;6086853;23;45345;-79
2021/08/10 08:54:33;;;;;;;;;0.00;0.00;;;;;21.55;59.87;101416.66;6085930;23;46127;-79
2021/08/10 08:56:59;;;;;;;;;0.00;0.00;;;;;21.47;59.75;101391.25;6084564;23;45432;-78
2021/08/10 08:59:25;;;;;;;;;0.00;0.00;;;;;21.76;59.46;101416.13;6084732;23;45562;-77
2021/08/10 09:01:52;;;;;;;;;0.00;0.00;;;;;21.86;59.45;101422.03;6085581;23;45333;-83
2021/08/10 09:04:18;;;;;;;;;0.00;0.00;;;;;21.93;59.35;101419.22;6084244;23;45436;-79
2021/08/10 09:06:43;;;;;;;;;0.00;0.00;;;;;21.77;59.34;101386.06;6082509;23;46105;-78
2021/08/10 09:09:19;;;;;;;;;0.00;0.00;;;;;21.67;58.86;101367.78;6084611;23;45326;-80
2021/08/10 09:12:12;;;;;;;;;0.00;0.00;;;;;21.91;59.11;101421.91;6085349;23;45523;-79
2021/08/10 09:14:52;;;;;;;;;0.00;0.00;;;;;21.97;59.08;101424.38;6094277;23;46062;-77
2021/08/10 09:17:21;;;;;;;;;0.25;0.00;;;;;21.96;58.73;101427.91;6084004;23;45348;-78
2021/08/10 09:19:49;;;;;;;;;0.00;0.00;;;;;21.94;58.79;101418.28;6086176;23;45286;-80
2021/08/10 09:22:29;;;;;;;;;0.00;0.00;;;;;22.11;58.79;101423.13;6085433;23;45285;-81
2021/08/10 09:25:04;;;;;;;;;1.00;0.00;;;;;22.21;58.28;101426.34;6082389;23;47399;-81
2021/08/10 09:27:37;;;;;;;;;0.00;0.00;;;;;22.24;57.45;101435.06;6085533;23;45649;-81
2021/08/10 09:30:06;;;;;;;;;0.00;0.00;;;;;22.27;57.57;101427.03;6084127;23;45373;-80
2021/08/10 09:32:32;;;;;;;;;0.00;0.00;;;;;22.35;57.84;101417.97;6086591;23;45558;-84
2021/08/10 09:35:13;;;;;;;;;0.00;0.00;;;;;22.45;57.50;101427.38;6085034;23;45506;-79
2021/08/10 09:37:39;;;;;;;;;0.00;0.00;;;;;22.47;57.59;101404.34;6086290;23;45285;-81
2021/08/10 09:40:39;;;;;;;;;0.00;0.00;;;;;22.59;57.19;101419.06;6082977;23;45324;-84
2021/08/10 09:43:28;;;;;;;;;0.00;0.00;;;;;22.68;57.42;101409.94;6086455;23;45352;-78
2021/08/10 09:46:17;;;;;;;;;0.00;0.00;;;;;22.77;56.16;101400.81;6084463;23;45560;-78
2021/08/10 09:48:56;;;;;;;;;0.00;0.00;;;;;22.83;56.51;101418.31;6088033;23;45310;-78
2021/08/10 09:51:23;;;;;;;;;0.00;0.00;;;;;22.83;55.57;101416.53;6088545;23;45309;-79
2021/08/10 09:54:00;;;;;;;;;0.00;0.00;;;;;22.67;55.75;101392.28;6085540;23;45377;-79
2021/08/10 09:56:52;;;;;;;;;0.00;0.00;;;;;22.63;54.57;101398.59;6087578;23;45901;-77
2021/08/10 09:59:22;;;;;;;;;0.00;0.00;;;;;22.62;54.20;101402.16;6087859;23;45317;-77
2021/08/10 10:01:55;;;;;;;;;0.00;0.00;;;;;22.58;54.01;101396.09;6088472;23;45368;-76
2021/08/10 10:04:25;;;;;;;;;0.00;0.00;;;;;22.56;54.53;101408.50;6088253;23;45331;-76
2021/08/10 10:06:53;;;;;;;;;0.00;0.00;;;;;22.48;53.66;101411.38;6085331;23;47133;-75
2021/08/10 10:09:20;;;;;;;;;0.00;0.00;;;;;22.46;53.97;101410.56;6087563;23;45368;-76
2021/08/10 10:11:48;;;;;;;;;0.00;0.00;;;;;22.40;53.62;101402.81;6086229;23;45394;-76
2021/08/10 10:14:14;;;;;;;;;0.00;0.00;;;;;22.27;53.83;101408.47;6086159;23;45373;-76
2021/08/10 10:16:42;;;;;;;;;0.50;0.00;;;;;22.39;54.28;101417.84;6086172;23;45243;-78
2021/08/10 10:19:13;;;;;;;;;0.00;0.00;;;;;22.55;53.77;101421.81;6085561;23;45378;-77
2021/08/10 10:21:44;;;;;;;;;0.00;0.00;;;;;22.65;53.39;101412.69;6087861;23;45324;-77
2021/08/10 10:24:11;;;;;;;;;0.00;0.00;;;;;22.76;53.38;101409.69;6087541;23;45349;-81
2021/08/10 10:26:43;;;;;;;;;0.00;0.00;;;;;22.94;53.67;101418.81;6085931;23;47193;-78
2021/08/10 10:29:11;;;;;;;;;0.00;0.00;;;;;23.00;53.05;101421.28;6087594;23;45357;-78
2021/08/10 10:31:37;;;;;;;;;0.00;0.00;;;;;23.18;52.74;101415.41;6087815;23;45321;-78
2021/08/10 10:34:03;;;;;;;;;3.00;0.00;;;;;23.30;52.42;101414.97;6087997;23;45352;-78
2021/08/10 10:36:29;;;;;;;;;0.00;0.00;;;;;23.40;53.07;101412.94;6087652;23;45619;-78
2021/08/10 10:38:57;;;;;;;;;0.00;0.00;;;;;23.12;51.70;101355.44;6087482;23;45236;-79
2021/08/10 10:41:25;;;;;;;;;0.00;0.00;;;;;23.40;52.12;101402.31;6087460;23;45490;-77
2021/08/10 10:43:52;;;;;;;;;0.00;0.00;;;;;23.35;51.89;101413.06;6085512;23;45397;-79
2021/08/10 10:46:31;;;;;;;;;0.00;0.00;;;;;23.41;50.85;101402.25;6087023;23;45535;-76
2021/08/10 10:48:57;;;;;;;;;0.00;0.00;;;;;23.41;51.61;101402.25;6087521;23;45631;-76
2021/08/10 10:51:28;;;;;;;;;0.00;0.00;;;;;23.30;51.95;101367.19;6087445;23;45371;-76
2021/08/10 10:54:27;;;;;;;;;0.00;0.00;;;;;23.60;52.02;101384.75;6088084;23;45242;-76
2021/08/10 10:56:58;;;;;;;;;0.00;0.00;;;;;23.26;51.11;101339.88;6088050;23;46197;-76
2021/08/10 10:59:24;;;;;;;;;0.00;0.00;;;;;23.60;51.04;101384.75;6085643;23;45321;-79
2021/08/10 11:01:52;;;;;;;;;0.00;0.00;;;;;23.61;50.53;101391.84;6086177;23;45409;-77
2021/08/10 11:04:17;;;;;;;;;0.00;0.00;;;;;23.47;51.16;101379.03;6086607;23;45383;-79
2021/08/10 11:06:45;;;;;;;;;0.00;0.00;;;;;23.53;50.65;101390.31;6086552;23;45337;-80
2021/08/10 11:09:36;;;;;;;;;0.00;0.00;;;;;23.25;51.73;101353.22;6087450;23;45556;-80
2021/08/10 11:12:23;;;;;;;;;0.50;0.50;;;;;23.57;51.30;101390.19;6086816;23;45315;-82
2021/08/10 11:14:54;;;;;;;;;0.00;0.00;;;;;23.52;50.90;101388.56;6103300;23;47156;-82
2021/08/10 11:17:20;;;;;;;;;0.00;0.00;;;;;23.58;50.66;101386.63;6087473;23;45360;-81
2021/08/10 11:19:47;;;;;;;;;0.00;0.00;;;;;23.63;51.22;101393.50;6086626;23;45397;-83
2021/08/10 11:22:15;;;;;;;;;0.00;0.00;;;;;23.67;50.99;101397.78;6087018;23;45719;-82
2021/08/10 11:24:43;;;;;;;;;0.00;0.00;;;;;23.60;51.05;101380.31;6088309;23;45297;-86
2021/08/10 11:27:41;;;;;;;;;0.00;0.00;;;;;23.71;50.87;101398.56;6086549;23;45802;-79
2021/08/10 11:30:30;;;;;;;;;0.00;0.00;;;;;23.59;51.24;101375.06;6086431;23;45429;-80